sensor_id;sensor_type;location;lat;lon;timestamp;pressure;altitude;pressure_sealevel;temperature;humidity
39051;BME280;24805;55.852;37.644;2022-10-30T00:04:31;97576.00;;;12.95;70.90
39051;BME280;24805;55.852;37.644;2022-10-30T00:09:33;97576.31;;;12.98;70.81
39051;BME280;24805;55.852;37.644;2022-10-30T00:14:35;97572.91;;;13.03;70.38
39051;BME280;24805;55.852;37.644;2022-10-30T00:19:37;97561.16;;;12.99;71.07
39051;BME280;24805;55.852;37.644;2022-10-30T00:24:39;97552.09;;;13.00;70.59
39051;BME280;24805;55.852;37.644;2022-10-30T00:29:41;97548.63;;;12.99;70.38
39051;BME280;24805;55.852;37.644;2022-10-30T00:34:43;97534.78;;;12.97;70.60
39051;BME280;24805;55.852;37.644;2022-10-30T00:39:45;97539.53;;;12.95;70.59
39051;BME280;24805;55.852;37.644;2022-10-30T00:44:50;97535.03;;;12.96;70.23
39051;BME280;24805;55.852;37.644;2022-10-30T00:55:11;97529.63;;;13.07;70.50
39051;BME280;24805;55.852;37.644;2022-10-30T01:00:15;97524.84;;;13.09;70.18
39051;BME280;24805;55.852;37.644;2022-10-30T01:05:19;97523.25;;;13.08;70.22
39051;BME280;24805;55.852;37.644;2022-10-30T01:10:23;97513.97;;;13.11;70.00
39051;BME280;24805;55.852;37.644;2022-10-30T01:15:27;97511.53;;;13.09;70.34
39051;BME280;24805;55.852;37.644;2022-10-30T01:36:08;97505.31;;;13.04;69.60
39051;BME280;24805;55.852;37.644;2022-10-30T01:41:13;97504.19;;;13.00;70.17
39051;BME280;24805;55.852;37.644;2022-10-30T01:51:50;97503.31;;;12.94;69.49
39051;BME280;24805;55.852;37.644;2022-10-30T02:02:17;97492.34;;;12.91;69.53
39051;BME280;24805;55.852;37.644;2022-10-30T02:07:19;97498.63;;;12.85;69.46
39051;BME280;24805;55.852;37.644;2022-10-30T02:12:24;97496.38;;;12.76;69.12
39051;BME280;24805;55.852;37.644;2022-10-30T02:17:47;97500.88;;;12.76;68.97
39051;BME280;24805;55.852;37.644;2022-10-30T02:22:50;97514.19;;;12.76;69.26
39051;BME280;24805;55.852;37.644;2022-10-30T02:28:04;97506.28;;;12.81;69.27
39051;BME280;24805;55.852;37.644;2022-10-30T02:33:06;97503.47;;;12.88;69.18
39051;BME280;24805;55.852;37.644;2022-10-30T02:38:08;97496.63;;;12.92;68.88
39051;BME280;24805;55.852;37.644;2022-10-30T02:43:10;97491.06;;;12.93;68.24
39051;BME280;24805;55.852;37.644;2022-10-30T02:48:12;97504.13;;;12.95;67.89
39051;BME280;24805;55.852;37.644;2022-10-30T02:53:14;97491.63;;;12.95;68.05
39051;BME280;24805;55.852;37.644;2022-10-30T02:58:16;97487.69;;;12.98;67.24
39051;BME280;24805;55.852;37.644;2022-10-30T03:03:19;97485.25;;;12.96;66.52
39051;BME280;24805;55.852;37.644;2022-10-30T03:08:24;97483.69;;;13.00;66.47
39051;BME280;24805;55.852;37.644;2022-10-30T03:13:27;97477.28;;;12.96;66.53
39051;BME280;24805;55.852;37.644;2022-10-30T03:18:30;97483.31;;;12.92;66.25
39051;BME280;24805;55.852;37.644;2022-10-30T03:23:33;97485.88;;;12.87;65.87
39051;BME280;24805;55.852;37.644;2022-10-30T03:28:36;97484.69;;;12.77;65.34
39051;BME280;24805;55.852;37.644;2022-10-30T03:33:38;97486.91;;;12.69;65.24
39051;BME280;24805;55.852;37.644;2022-10-30T03:38:41;97484.34;;;12.74;65.20
39051;BME280;24805;55.852;37.644;2022-10-30T03:43:46;97479.19;;;12.67;65.07
39051;BME280;24805;55.852;37.644;2022-10-30T03:48:48;97494.41;;;12.55;64.47
39051;BME280;24805;55.852;37.644;2022-10-30T03:53:51;97484.44;;;12.34;64.07
39051;BME280;24805;55.852;37.644;2022-10-30T03:58:53;97485.28;;;12.23;64.33
39051;BME280;24805;55.852;37.644;2022-10-30T04:03:56;97490.31;;;12.07;64.00
39051;BME280;24805;55.852;37.644;2022-10-30T04:08:59;97491.16;;;11.96;64.30
39051;BME280;24805;55.852;37.644;2022-10-30T04:14:07;97488.16;;;11.93;63.43
39051;BME280;24805;55.852;37.644;2022-10-30T04:19:09;97501.56;;;11.86;64.17
39051;BME280;24805;55.852;37.644;2022-10-30T04:24:11;97495.34;;;11.81;64.06
39051;BME280;24805;55.852;37.644;2022-10-30T04:29:18;97492.38;;;11.77;63.55
39051;BME280;24805;55.852;37.644;2022-10-30T04:34:21;97490.97;;;11.74;63.19
39051;BME280;24805;55.852;37.644;2022-10-30T04:39:23;97479.09;;;11.77;63.66
39051;BME280;24805;55.852;37.644;2022-10-30T04:44:32;97476.97;;;11.79;63.40
39051;BME280;24805;55.852;37.644;2022-10-30T04:49:34;97475.25;;;11.85;63.27
39051;BME280;24805;55.852;37.644;2022-10-30T04:54:36;97473.38;;;11.85;62.99
39051;BME280;24805;55.852;37.644;2022-10-30T04:59:38;97473.97;;;11.87;62.78
39051;BME280;24805;55.852;37.644;2022-10-30T05:04:40;97461.03;;;11.91;62.36
39051;BME280;24805;55.852;37.644;2022-10-30T05:09:42;97478.94;;;11.95;62.38
39051;BME280;24805;55.852;37.644;2022-10-30T05:14:44;97461.72;;;11.98;62.61
39051;BME280;24805;55.852;37.644;2022-10-30T05:19:47;97459.94;;;12.03;62.65
39051;BME280;24805;55.852;37.644;2022-10-30T05:24:49;97457.19;;;11.98;61.85
39051;BME280;24805;55.852;37.644;2022-10-30T05:29:51;97462.59;;;12.03;61.54
39051;BME280;24805;55.852;37.644;2022-10-30T05:34:53;97471.59;;;12.14;61.44
39051;BME280;24805;55.852;37.644;2022-10-30T05:39:57;97491.34;;;12.06;61.28
39051;BME280;24805;55.852;37.644;2022-10-30T05:45:00;97522.81;;;11.98;61.85
39051;BME280;24805;55.852;37.644;2022-10-30T05:50:08;97520.63;;;11.83;61.75
39051;BME280;24805;55.852;37.644;2022-10-30T05:55:10;97529.41;;;11.60;61.72
39051;BME280;24805;55.852;37.644;2022-10-30T06:00:35;97525.72;;;11.50;61.34
39051;BME280;24805;55.852;37.644;2022-10-30T06:05:37;97526.53;;;11.62;61.06
39051;BME280;24805;55.852;37.644;2022-10-30T06:10:40;97537.03;;;13.39;58.63
39051;BME280;24805;55.852;37.644;2022-10-30T06:15:56;97543.13;;;15.78;59.35
39051;BME280;24805;55.852;37.644;2022-10-30T06:21:02;97539.81;;;17.77;52.28
39051;BME280;24805;55.852;37.644;2022-10-30T06:26:24;97540.13;;;18.94;50.65
39051;BME280;24805;55.852;37.644;2022-10-30T06:31:29;97553.66;;;19.52;46.01
39051;BME280;24805;55.852;37.644;2022-10-30T06:36:33;97553.38;;;20.30;45.89
39051;BME280;24805;55.852;37.644;2022-10-30T06:41:35;97557.81;;;20.63;44.91
39051;BME280;24805;55.852;37.644;2022-10-30T06:46:59;97563.41;;;20.24;44.42
39051;BME280;24805;55.852;37.644;2022-10-30T06:52:01;97570.59;;;20.58;45.10
39051;BME280;24805;55.852;37.644;2022-10-30T06:57:03;97540.66;;;21.35;41.48
39051;BME280;24805;55.852;37.644;2022-10-30T07:02:24;97518.47;;;21.97;37.74
39051;BME280;24805;55.852;37.644;2022-10-30T07:07:30;97545.41;;;22.30;34.91
39051;BME280;24805;55.852;37.644;2022-10-30T07:12:32;97551.31;;;21.72;37.35
39051;BME280;24805;55.852;37.644;2022-10-30T07:17:50;97541.59;;;20.69;35.89
39051;BME280;24805;55.852;37.644;2022-10-30T07:22:55;97557.63;;;18.81;37.38
39051;BME280;24805;55.852;37.644;2022-10-30T07:27:57;97550.91;;;18.24;37.04
39051;BME280;24805;55.852;37.644;2022-10-30T07:33:14;97551.50;;;18.11;34.74
39051;BME280;24805;55.852;37.644;2022-10-30T07:38:28;97547.56;;;19.02;36.68
39051;BME280;24805;55.852;37.644;2022-10-30T07:43:39;97538.81;;;20.31;35.27
39051;BME280;24805;55.852;37.644;2022-10-30T07:48:59;97507.53;;;20.78;31.33
39051;BME280;24805;55.852;37.644;2022-10-30T07:54:12;97510.06;;;20.50;31.96
39051;BME280;24805;55.852;37.644;2022-10-30T07:59:14;97519.56;;;20.43;30.13
39051;BME280;24805;55.852;37.644;2022-10-30T08:04:51;97494.06;;;19.69;31.27
39051;BME280;24805;55.852;37.644;2022-10-30T08:10:13;97528.81;;;19.31;34.03
39051;BME280;24805;55.852;37.644;2022-10-30T08:15:15;97549.94;;;19.09;35.30
39051;BME280;24805;55.852;37.644;2022-10-30T08:20:18;97518.13;;;18.38;32.79
39051;BME280;24805;55.852;37.644;2022-10-30T08:25:26;97548.97;;;18.40;35.19
39051;BME280;24805;55.852;37.644;2022-10-30T08:30:30;97520.22;;;17.56;34.69
39051;BME280;24805;55.852;37.644;2022-10-30T08:35:32;97515.22;;;16.21;34.70
39051;BME280;24805;55.852;37.644;2022-10-30T08:40:34;97497.66;;;15.04;36.31
39051;BME280;24805;55.852;37.644;2022-10-30T08:45:39;97515.41;;;14.56;38.05
39051;BME280;24805;55.852;37.644;2022-10-30T08:50:50;97513.38;;;14.95;38.98
39051;BME280;24805;55.852;37.644;2022-10-30T08:56:00;97525.13;;;14.99;38.30
39051;BME280;24805;55.852;37.644;2022-10-30T09:01:16;97482.47;;;14.45;37.75
39051;BME280;24805;55.852;37.644;2022-10-30T09:06:38;97494.75;;;14.03;39.27
39051;BME280;24805;55.852;37.644;2022-10-30T09:11:58;97510.00;;;13.47;39.07
39051;BME280;24805;55.852;37.644;2022-10-30T09:17:01;97505.09;;;13.05;40.21
39051;BME280;24805;55.852;37.644;2022-10-30T09:22:04;97492.16;;;12.64;40.72
39051;BME280;24805;55.852;37.644;2022-10-30T09:27:11;97484.22;;;12.35;41.54
39051;BME280;24805;55.852;37.644;2022-10-30T09:32:19;97482.28;;;12.19;41.28
39051;BME280;24805;55.852;37.644;2022-10-30T09:37:27;97476.97;;;12.19;42.18
39051;BME280;24805;55.852;37.644;2022-10-30T09:42:40;97486.06;;;12.35;41.59
39051;BME280;24805;55.852;37.644;2022-10-30T09:58:13;97484.47;;;15.24;40.86
39051;BME280;24805;55.852;37.644;2022-10-30T10:03:32;97475.81;;;14.48;39.39
39051;BME280;24805;55.852;37.644;2022-10-30T10:14:27;97438.94;;;12.47;40.86
39051;BME280;24805;55.852;37.644;2022-10-30T10:20:05;97433.53;;;11.97;42.21
39051;BME280;24805;55.852;37.644;2022-10-30T10:24:59;97444.69;;;11.59;42.19
39051;BME280;24805;55.852;37.644;2022-10-30T10:30:04;97463.16;;;11.42;43.06
39051;BME280;24805;55.852;37.644;2022-10-30T10:51:06;97440.06;;;14.81;40.71
39051;BME280;24805;55.852;37.644;2022-10-30T10:56:11;97433.41;;;14.78;36.99
39051;BME280;24805;55.852;37.644;2022-10-30T11:01:15;97434.41;;;13.70;38.54
39051;BME280;24805;55.852;37.644;2022-10-30T11:06:19;97422.84;;;12.54;39.07
39051;BME280;24805;55.852;37.644;2022-10-30T11:11:24;97455.75;;;11.67;40.29
39051;BME280;24805;55.852;37.644;2022-10-30T11:21:59;97470.34;;;11.30;41.32
39051;BME280;24805;55.852;37.644;2022-10-30T11:27:23;97476.56;;;11.47;39.18
39051;BME280;24805;55.852;37.644;2022-10-30T11:32:29;97483.28;;;11.15;40.30
39051;BME280;24805;55.852;37.644;2022-10-30T11:37:33;97500.47;;;11.12;41.07
39051;BME280;24805;55.852;37.644;2022-10-30T11:42:36;97468.25;;;11.20;41.21
39051;BME280;24805;55.852;37.644;2022-10-30T11:47:40;97492.75;;;12.37;41.07
39051;BME280;24805;55.852;37.644;2022-10-30T11:52:42;97489.88;;;13.95;40.04
39051;BME280;24805;55.852;37.644;2022-10-30T11:57:48;97485.53;;;15.60;37.10
39051;BME280;24805;55.852;37.644;2022-10-30T12:02:52;97479.78;;;16.86;36.49
39051;BME280;24805;55.852;37.644;2022-10-30T12:08:09;97426.03;;;17.83;30.60
39051;BME280;24805;55.852;37.644;2022-10-30T12:13:16;97471.97;;;18.31;33.77
39051;BME280;24805;55.852;37.644;2022-10-30T12:18:20;97484.81;;;18.39;30.79
39051;BME280;24805;55.852;37.644;2022-10-30T12:23:23;97465.44;;;17.93;28.34
39051;BME280;24805;55.852;37.644;2022-10-30T12:28:30;97489.94;;;16.79;32.54
39051;BME280;24805;55.852;37.644;2022-10-30T12:39:16;97489.28;;;14.36;31.51
39051;BME280;24805;55.852;37.644;2022-10-30T12:44:25;97499.53;;;13.07;33.46
39051;BME280;24805;55.852;37.644;2022-10-30T12:49:32;97499.72;;;12.27;32.97
39051;BME280;24805;55.852;37.644;2022-10-30T13:00:01;97541.47;;;10.86;36.69
39051;BME280;24805;55.852;37.644;2022-10-30T13:05:12;97528.00;;;10.10;38.68
39051;BME280;24805;55.852;37.644;2022-10-30T13:10:33;97526.75;;;9.39;39.83
39051;BME280;24805;55.852;37.644;2022-10-30T13:15:41;97547.66;;;8.66;40.83
39051;BME280;24805;55.852;37.644;2022-10-30T13:26:05;97561.94;;;8.14;43.13
39051;BME280;24805;55.852;37.644;2022-10-30T13:31:32;97550.78;;;8.05;42.92
39051;BME280;24805;55.852;37.644;2022-10-30T13:36:37;97571.16;;;7.91;43.83
39051;BME280;24805;55.852;37.644;2022-10-30T13:52:15;97581.56;;;7.73;43.67
39051;BME280;24805;55.852;37.644;2022-10-30T14:02:41;97591.94;;;7.55;45.98
39051;BME280;24805;55.852;37.644;2022-10-30T14:07:48;97582.41;;;7.47;47.67
39051;BME280;24805;55.852;37.644;2022-10-30T14:23:13;97630.28;;;6.31;48.12
39051;BME280;24805;55.852;37.644;2022-10-30T14:28:19;97621.56;;;5.61;49.83
39051;BME280;24805;55.852;37.644;2022-10-30T14:39:40;97603.56;;;4.88;53.93
39051;BME280;24805;55.852;37.644;2022-10-30T14:44:18;97609.88;;;4.72;52.95
39051;BME280;24805;55.852;37.644;2022-10-30T14:49:32;97611.88;;;4.70;54.92
39051;BME280;24805;55.852;37.644;2022-10-30T14:54:39;97620.59;;;4.70;55.00
39051;BME280;24805;55.852;37.644;2022-10-30T14:59:44;97623.31;;;4.62;52.08
39051;BME280;24805;55.852;37.644;2022-10-30T15:10:13;97620.41;;;4.36;53.52
39051;BME280;24805;55.852;37.644;2022-10-30T15:15:20;97633.34;;;4.37;53.33
39051;BME280;24805;55.852;37.644;2022-10-30T15:20:25;97668.13;;;4.39;53.34
39051;BME280;24805;55.852;37.644;2022-10-30T15:25:32;97652.47;;;4.31;52.73
39051;BME280;24805;55.852;37.644;2022-10-30T15:30:35;97660.78;;;4.35;53.62
39051;BME280;24805;55.852;37.644;2022-10-30T15:35:45;97660.75;;;4.49;53.16
39051;BME280;24805;55.852;37.644;2022-10-30T15:40:47;97671.59;;;4.61;53.46
39051;BME280;24805;55.852;37.644;2022-10-30T15:45:50;97683.34;;;4.65;53.42
39051;BME280;24805;55.852;37.644;2022-10-30T15:55:59;97704.91;;;4.61;53.68
39051;BME280;24805;55.852;37.644;2022-10-30T16:01:01;97700.88;;;4.58;53.53
39051;BME280;24805;55.852;37.644;2022-10-30T16:06:04;97697.03;;;4.61;53.71
39051;BME280;24805;55.852;37.644;2022-10-30T16:11:06;97713.53;;;4.69;53.96
39051;BME280;24805;55.852;37.644;2022-10-30T16:16:21;97718.13;;;4.67;54.15
39051;BME280;24805;55.852;37.644;2022-10-30T16:21:25;97698.75;;;4.68;54.30
39051;BME280;24805;55.852;37.644;2022-10-30T16:26:32;97697.84;;;4.61;53.25
39051;BME280;24805;55.852;37.644;2022-10-30T16:31:35;97713.56;;;4.55;53.56
39051;BME280;24805;55.852;37.644;2022-10-30T16:36:38;97722.25;;;4.55;54.07
39051;BME280;24805;55.852;37.644;2022-10-30T16:41:41;97711.63;;;4.63;54.06
39051;BME280;24805;55.852;37.644;2022-10-30T16:47:04;97729.91;;;4.71;54.62
39051;BME280;24805;55.852;37.644;2022-10-30T16:52:10;97727.84;;;4.67;54.88
39051;BME280;24805;55.852;37.644;2022-10-30T16:57:19;97725.56;;;4.64;54.59
39051;BME280;24805;55.852;37.644;2022-10-30T17:02:28;97726.50;;;4.56;54.51
39051;BME280;24805;55.852;37.644;2022-10-30T17:07:30;97716.41;;;4.60;54.09
39051;BME280;24805;55.852;37.644;2022-10-30T17:12:32;97718.31;;;4.66;53.90
39051;BME280;24805;55.852;37.644;2022-10-30T17:17:36;97716.69;;;4.79;54.05
39051;BME280;24805;55.852;37.644;2022-10-30T17:22:38;97720.81;;;4.89;53.90
39051;BME280;24805;55.852;37.644;2022-10-30T17:27:44;97723.34;;;4.97;54.09
39051;BME280;24805;55.852;37.644;2022-10-30T17:32:51;97722.16;;;4.99;53.52
39051;BME280;24805;55.852;37.644;2022-10-30T17:37:53;97723.25;;;4.90;53.23
39051;BME280;24805;55.852;37.644;2022-10-30T17:43:02;97717.78;;;4.70;52.77
39051;BME280;24805;55.852;37.644;2022-10-30T17:48:12;97705.84;;;4.53;53.28
39051;BME280;24805;55.852;37.644;2022-10-30T17:53:15;97708.03;;;4.35;53.28
39051;BME280;24805;55.852;37.644;2022-10-30T17:58:19;97703.81;;;4.19;53.56
39051;BME280;24805;55.852;37.644;2022-10-30T18:03:21;97705.06;;;4.08;53.55
39051;BME280;24805;55.852;37.644;2022-10-30T18:08:23;97704.13;;;4.01;53.47
39051;BME280;24805;55.852;37.644;2022-10-30T18:13:25;97703.59;;;3.91;54.08
39051;BME280;24805;55.852;37.644;2022-10-30T18:18:27;97707.09;;;3.84;54.20
39051;BME280;24805;55.852;37.644;2022-10-30T18:23:29;97709.47;;;3.78;53.81
39051;BME280;24805;55.852;37.644;2022-10-30T18:28:51;97703.94;;;3.73;53.84
39051;BME280;24805;55.852;37.644;2022-10-30T18:34:00;97695.78;;;3.68;54.21
39051;BME280;24805;55.852;37.644;2022-10-30T18:39:02;97693.03;;;3.62;54.10
39051;BME280;24805;55.852;37.644;2022-10-30T18:44:04;97693.44;;;3.59;54.18
39051;BME280;24805;55.852;37.644;2022-10-30T18:49:06;97694.78;;;3.55;54.00
39051;BME280;24805;55.852;37.644;2022-10-30T18:54:14;97697.91;;;3.50;54.44
39051;BME280;24805;55.852;37.644;2022-10-30T18:59:16;97697.78;;;3.43;54.25
39051;BME280;24805;55.852;37.644;2022-10-30T19:04:18;97705.13;;;3.48;54.59
39051;BME280;24805;55.852;37.644;2022-10-30T19:09:23;97707.75;;;3.48;53.87
39051;BME280;24805;55.852;37.644;2022-10-30T19:14:25;97708.28;;;3.43;54.35
39051;BME280;24805;55.852;37.644;2022-10-30T19:19:27;97703.75;;;3.37;54.46
39051;BME280;24805;55.852;37.644;2022-10-30T19:24:29;97701.50;;;3.34;54.04
39051;BME280;24805;55.852;37.644;2022-10-30T19:29:30;97712.50;;;3.30;53.90
39051;BME280;24805;55.852;37.644;2022-10-30T19:34:32;97703.19;;;3.27;53.79
39051;BME280;24805;55.852;37.644;2022-10-30T19:39:34;97708.25;;;3.29;53.79
39051;BME280;24805;55.852;37.644;2022-10-30T19:44:36;97690.53;;;3.31;53.36
39051;BME280;24805;55.852;37.644;2022-10-30T19:49:38;97699.56;;;3.28;53.33
39051;BME280;24805;55.852;37.644;2022-10-30T19:54:40;97706.44;;;3.29;53.55
39051;BME280;24805;55.852;37.644;2022-10-30T19:59:43;97700.72;;;3.26;53.21
39051;BME280;24805;55.852;37.644;2022-10-30T20:04:45;97694.38;;;3.20;53.00
39051;BME280;24805;55.852;37.644;2022-10-30T20:09:49;97687.06;;;3.16;52.87
39051;BME280;24805;55.852;37.644;2022-10-30T20:14:51;97687.88;;;3.16;52.51
39051;BME280;24805;55.852;37.644;2022-10-30T20:19:54;97683.97;;;3.12;52.61
39051;BME280;24805;55.852;37.644;2022-10-30T20:24:57;97664.81;;;3.11;52.21
39051;BME280;24805;55.852;37.644;2022-10-30T20:29:59;97679.88;;;3.09;52.08
39051;BME280;24805;55.852;37.644;2022-10-30T20:35:01;97685.00;;;3.03;51.81
39051;BME280;24805;55.852;37.644;2022-10-30T20:40:11;97682.56;;;3.01;51.59
39051;BME280;24805;55.852;37.644;2022-10-30T20:45:15;97685.16;;;3.01;51.47
39051;BME280;24805;55.852;37.644;2022-10-30T20:50:18;97687.22;;;2.91;51.92
39051;BME280;24805;55.852;37.644;2022-10-30T20:55:21;97691.00;;;2.89;51.44
39051;BME280;24805;55.852;37.644;2022-10-30T21:00:23;97688.25;;;2.82;51.53
39051;BME280;24805;55.852;37.644;2022-10-30T21:05:25;97668.00;;;2.76;51.29
39051;BME280;24805;55.852;37.644;2022-10-30T21:10:47;97684.53;;;2.76;51.62
39051;BME280;24805;55.852;37.644;2022-10-30T21:15:49;97683.25;;;2.72;51.53
39051;BME280;24805;55.852;37.644;2022-10-30T21:20:52;97682.94;;;2.67;51.68
39051;BME280;24805;55.852;37.644;2022-10-30T21:26:02;97689.97;;;2.67;51.33
39051;BME280;24805;55.852;37.644;2022-10-30T21:31:05;97688.34;;;2.66;51.13
39051;BME280;24805;55.852;37.644;2022-10-30T21:36:12;97684.25;;;2.63;50.48
39051;BME280;24805;55.852;37.644;2022-10-30T21:41:18;97689.84;;;2.60;51.12
39051;BME280;24805;55.852;37.644;2022-10-30T21:46:22;97693.75;;;2.64;50.90
39051;BME280;24805;55.852;37.644;2022-10-30T21:51:25;97683.72;;;2.76;51.28
39051;BME280;24805;55.852;37.644;2022-10-30T21:56:28;97685.47;;;2.84;50.89
39051;BME280;24805;55.852;37.644;2022-10-30T22:01:30;97685.63;;;2.82;50.04
39051;BME280;24805;55.852;37.644;2022-10-30T22:06:33;97672.25;;;2.77;50.30
39051;BME280;24805;55.852;37.644;2022-10-30T22:11:35;97682.13;;;2.67;49.74
39051;BME280;24805;55.852;37.644;2022-10-30T22:16:37;97664.78;;;2.66;50.03
39051;BME280;24805;55.852;37.644;2022-10-30T22:21:39;97677.06;;;2.65;49.36
39051;BME280;24805;55.852;37.644;2022-10-30T22:26:41;97676.59;;;2.62;49.73
39051;BME280;24805;55.852;37.644;2022-10-30T22:31:43;97671.50;;;2.60;49.33
39051;BME280;24805;55.852;37.644;2022-10-30T22:36:45;97673.97;;;2.62;49.09
39051;BME280;24805;55.852;37.644;2022-10-30T22:41:48;97670.34;;;2.63;48.72
39051;BME280;24805;55.852;37.644;2022-10-30T22:46:50;97664.44;;;2.69;49.35
39051;BME280;24805;55.852;37.644;2022-10-30T22:51:52;97672.13;;;2.70;49.42
39051;BME280;24805;55.852;37.644;2022-10-30T22:56:54;97675.06;;;2.75;49.19
39051;BME280;24805;55.852;37.644;2022-10-30T23:01:56;97671.09;;;2.80;49.17
39051;BME280;24805;55.852;37.644;2022-10-30T23:06:58;97665.66;;;2.81;48.73
39051;BME280;24805;55.852;37.644;2022-10-30T23:12:00;97670.22;;;2.87;48.89
39051;BME280;24805;55.852;37.644;2022-10-30T23:17:02;97656.59;;;2.92;48.47
39051;BME280;24805;55.852;37.644;2022-10-30T23:22:04;97648.41;;;2.95;48.11
39051;BME280;24805;55.852;37.644;2022-10-30T23:27:06;97654.03;;;3.06;48.42
39051;BME280;24805;55.852;37.644;2022-10-30T23:32:08;97641.22;;;3.11;48.29
39051;BME280;24805;55.852;37.644;2022-10-30T23:37:10;97642.44;;;3.24;48.12
39051;BME280;24805;55.852;37.644;2022-10-30T23:42:12;97642.44;;;3.24;48.16
39051;BME280;24805;55.852;37.644;2022-10-30T23:47:16;97628.50;;;3.23;48.39
39051;BME280;24805;55.852;37.644;2022-10-30T23:52:18;97628.50;;;3.23;48.67
39051;BME280;24805;55.852;37.644;2022-10-30T23:57:20;97624.25;;;3.22;48.02
